Terminal Aerodrome Forecast
Issued by NWS Cleveland, OH

Home | Current Version | Previous Version | Graphics & Text | Print | Product List | Glossary On
Versions: 1 2 3 4 5 6 7 8 9 10 11 12 13 14 15 16
040
FTUS41 KCLE 141726
TAFERI
TAF
KERI 141726Z 1418/1518 35004KT P6SM OVC050
     FM142200 34004KT P6SM BKN045
     FM150100 30004KT P6SM BKN200=

USA.gov is the U.S. government's official web portal to all federal, state and local government web resources and services.